sensor_id;sensor_type;location;lat;lon;timestamp;pressure;altitude;pressure_sealevel;temperature;humidity
85499;BME280;75903;52.510;13.396;2024-02-04T00:00:14;101195.53;;;9.54;75.79
85499;BME280;75903;52.510;13.396;2024-02-04T00:02:40;101211.34;;;9.54;76.37
85499;BME280;75903;52.510;13.396;2024-02-04T00:05:05;101199.34;;;9.50;76.60
85499;BME280;75903;52.510;13.396;2024-02-04T00:07:31;101199.84;;;9.55;75.67
85499;BME280;75903;52.510;13.396;2024-02-04T00:09:56;101202.81;;;9.50;76.45
85499;BME280;75903;52.510;13.396;2024-02-04T00:12:22;101222.78;;;9.53;77.01
85499;BME280;75903;52.510;13.396;2024-02-04T00:14:47;101219.38;;;9.40;77.53
85499;BME280;75903;52.510;13.396;2024-02-04T00:17:15;101216.31;;;9.46;76.33
85499;BME280;75903;52.510;13.396;2024-02-04T00:19:41;101211.88;;;9.46;76.41
85499;BME280;75903;52.510;13.396;2024-02-04T00:22:07;101207.25;;;9.50;76.58
85499;BME280;75903;52.510;13.396;2024-02-04T00:24:32;101195.56;;;9.41;75.16
85499;BME280;75903;52.510;13.396;2024-02-04T00:26:58;101214.41;;;9.48;75.72
85499;BME280;75903;52.510;13.396;2024-02-04T00:29:23;101200.94;;;9.40;75.71
85499;BME280;75903;52.510;13.396;2024-02-04T00:31:48;101208.53;;;9.44;76.05
85499;BME280;75903;52.510;13.396;2024-02-04T00:34:14;101213.38;;;9.38;75.68
85499;BME280;75903;52.510;13.396;2024-02-04T00:36:39;101219.69;;;9.35;76.26
85499;BME280;75903;52.510;13.396;2024-02-04T00:39:05;101218.34;;;9.30;76.71
85499;BME280;75903;52.510;13.396;2024-02-04T00:41:32;101223.72;;;9.28;75.95
85499;BME280;75903;52.510;13.396;2024-02-04T00:43:57;101209.41;;;9.32;76.00
85499;BME280;75903;52.510;13.396;2024-02-04T00:46:23;101202.25;;;9.22;75.22
85499;BME280;75903;52.510;13.396;2024-02-04T00:48:48;101205.84;;;9.21;76.26
85499;BME280;75903;52.510;13.396;2024-02-04T00:51:14;101193.00;;;9.16;75.58
85499;BME280;75903;52.510;13.396;2024-02-04T00:53:42;101188.06;;;9.12;74.99
85499;BME280;75903;52.510;13.396;2024-02-04T00:56:08;101194.91;;;9.14;75.15
85499;BME280;75903;52.510;13.396;2024-02-04T00:58:35;101211.31;;;9.05;75.06
85499;BME280;75903;52.510;13.396;2024-02-04T01:01:00;101203.34;;;9.07;75.83
85499;BME280;75903;52.510;13.396;2024-02-04T01:03:26;101202.59;;;9.05;75.29
85499;BME280;75903;52.510;13.396;2024-02-04T01:05:51;101205.97;;;8.94;75.76
85499;BME280;75903;52.510;13.396;2024-02-04T01:08:17;101189.03;;;8.86;74.67
85499;BME280;75903;52.510;13.396;2024-02-04T01:10:42;101200.09;;;8.91;74.81
85499;BME280;75903;52.510;13.396;2024-02-04T01:13:07;101190.63;;;8.88;74.38
85499;BME280;75903;52.510;13.396;2024-02-04T01:15:33;101188.84;;;8.89;74.25
85499;BME280;75903;52.510;13.396;2024-02-04T01:17:58;101181.81;;;8.89;74.76
85499;BME280;75903;52.510;13.396;2024-02-04T01:20:24;101176.75;;;8.86;74.97
85499;BME280;75903;52.510;13.396;2024-02-04T01:22:49;101182.97;;;8.85;74.44
85499;BME280;75903;52.510;13.396;2024-02-04T01:25:14;101185.91;;;8.81;74.72
85499;BME280;75903;52.510;13.396;2024-02-04T01:27:40;101207.03;;;8.79;75.62
85499;BME280;75903;52.510;13.396;2024-02-04T01:30:06;101201.06;;;8.77;75.77
85499;BME280;75903;52.510;13.396;2024-02-04T01:32:31;101197.78;;;8.73;75.40
85499;BME280;75903;52.510;13.396;2024-02-04T01:34:56;101210.41;;;8.81;75.55
85499;BME280;75903;52.510;13.396;2024-02-04T01:37:22;101203.97;;;8.72;76.55
85499;BME280;75903;52.510;13.396;2024-02-04T01:39:48;101194.31;;;8.73;75.76
85499;BME280;75903;52.510;13.396;2024-02-04T01:42:13;101196.84;;;8.74;76.51
85499;BME280;75903;52.510;13.396;2024-02-04T01:44:39;101191.78;;;8.71;77.04
85499;BME280;75903;52.510;13.396;2024-02-04T01:47:04;101197.38;;;8.67;76.29
85499;BME280;75903;52.510;13.396;2024-02-04T01:49:30;101192.41;;;8.62;76.38
85499;BME280;75903;52.510;13.396;2024-02-04T01:51:56;101190.22;;;8.56;77.95
85499;BME280;75903;52.510;13.396;2024-02-04T01:54:23;101192.84;;;8.56;76.99
85499;BME280;75903;52.510;13.396;2024-02-04T01:56:51;101197.56;;;8.51;78.49
85499;BME280;75903;52.510;13.396;2024-02-04T01:59:18;101180.44;;;8.46;78.70
85499;BME280;75903;52.510;13.396;2024-02-04T02:01:45;101174.25;;;8.47;78.42
85499;BME280;75903;52.510;13.396;2024-02-04T02:04:11;101175.28;;;8.44;79.14
85499;BME280;75903;52.510;13.396;2024-02-04T02:06:39;101190.31;;;8.42;78.48
85499;BME280;75903;52.510;13.396;2024-02-04T02:09:06;101188.53;;;8.43;78.63
85499;BME280;75903;52.510;13.396;2024-02-04T02:11:40;101188.53;;;8.43;79.09
85499;BME280;75903;52.510;13.396;2024-02-04T02:14:11;101187.50;;;8.45;78.30
85499;BME280;75903;52.510;13.396;2024-02-04T02:16:38;101178.03;;;8.43;78.13
85499;BME280;75903;52.510;13.396;2024-02-04T02:24:38;101140.94;;;8.35;78.19
85499;BME280;75903;52.510;13.396;2024-02-04T02:27:04;101153.44;;;8.31;79.04
85499;BME280;75903;52.510;13.396;2024-02-04T02:29:31;101162.78;;;8.35;79.18
85499;BME280;75903;52.510;13.396;2024-02-04T02:31:58;101156.19;;;8.30;78.95
85499;BME280;75903;52.510;13.396;2024-02-04T02:34:24;101169.81;;;8.35;79.31
85499;BME280;75903;52.510;13.396;2024-02-04T02:37:06;101164.69;;;8.33;78.16
85499;BME280;75903;52.510;13.396;2024-02-04T02:39:45;101162.69;;;8.37;79.30
85499;BME280;75903;52.510;13.396;2024-02-04T02:42:13;101162.69;;;8.37;79.41
85499;BME280;75903;52.510;13.396;2024-02-04T02:44:39;101167.19;;;8.35;78.78
85499;BME280;75903;52.510;13.396;2024-02-04T02:47:06;101173.47;;;8.32;78.59
85499;BME280;75903;52.510;13.396;2024-02-04T02:49:32;101173.69;;;8.29;79.83
85499;BME280;75903;52.510;13.396;2024-02-04T02:51:58;101179.81;;;8.30;79.66
85499;BME280;75903;52.510;13.396;2024-02-04T02:54:23;101180.25;;;8.22;79.77
85499;BME280;75903;52.510;13.396;2024-02-04T02:56:49;101176.81;;;8.22;79.38
85499;BME280;75903;52.510;13.396;2024-02-04T02:59:14;101175.69;;;8.26;78.88
85499;BME280;75903;52.510;13.396;2024-02-04T03:01:40;101182.22;;;8.33;78.90
85499;BME280;75903;52.510;13.396;2024-02-04T03:04:05;101169.06;;;8.33;79.05
85499;BME280;75903;52.510;13.396;2024-02-04T03:06:31;101168.03;;;8.35;79.63
85499;BME280;75903;52.510;13.396;2024-02-04T03:08:56;101172.66;;;8.32;80.13
85499;BME280;75903;52.510;13.396;2024-02-04T03:11:22;101151.31;;;8.24;80.75
85499;BME280;75903;52.510;13.396;2024-02-04T03:13:47;101165.31;;;8.37;80.02
85499;BME280;75903;52.510;13.396;2024-02-04T03:16:13;101178.66;;;8.34;80.99
85499;BME280;75903;52.510;13.396;2024-02-04T03:18:40;101166.56;;;8.31;81.30
85499;BME280;75903;52.510;13.396;2024-02-04T03:21:12;101175.19;;;8.33;81.04
85499;BME280;75903;52.510;13.396;2024-02-04T03:23:38;101164.69;;;8.33;81.73
85499;BME280;75903;52.510;13.396;2024-02-04T03:26:03;101165.59;;;8.32;81.76
85499;BME280;75903;52.510;13.396;2024-02-04T03:28:29;101154.19;;;8.33;81.28
85499;BME280;75903;52.510;13.396;2024-02-04T03:30:54;101155.44;;;8.40;80.78
85499;BME280;75903;52.510;13.396;2024-02-04T03:33:19;101160.91;;;8.37;80.97
85499;BME280;75903;52.510;13.396;2024-02-04T03:35:45;101152.06;;;8.38;80.86
85499;BME280;75903;52.510;13.396;2024-02-04T03:38:10;101143.03;;;8.42;80.27
85499;BME280;75903;52.510;13.396;2024-02-04T03:40:35;101144.50;;;8.46;81.12
85499;BME280;75903;52.510;13.396;2024-02-04T03:43:01;101157.44;;;8.49;79.91
85499;BME280;75903;52.510;13.396;2024-02-04T03:45:27;101142.00;;;8.45;80.74
85499;BME280;75903;52.510;13.396;2024-02-04T03:47:52;101138.31;;;8.47;79.99
85499;BME280;75903;52.510;13.396;2024-02-04T03:50:17;101134.22;;;8.43;79.95
85499;BME280;75903;52.510;13.396;2024-02-04T03:52:43;101133.06;;;8.35;81.01
85499;BME280;75903;52.510;13.396;2024-02-04T03:55:09;101140.63;;;8.39;81.08
85499;BME280;75903;52.510;13.396;2024-02-04T03:57:34;101131.69;;;8.42;80.33
85499;BME280;75903;52.510;13.396;2024-02-04T03:59:59;101131.59;;;8.43;80.70
85499;BME280;75903;52.510;13.396;2024-02-04T04:02:25;101124.53;;;8.44;80.83
85499;BME280;75903;52.510;13.396;2024-02-04T04:04:50;101130.53;;;8.46;79.57
85499;BME280;75903;52.510;13.396;2024-02-04T04:07:15;101108.38;;;8.37;79.51
85499;BME280;75903;52.510;13.396;2024-02-04T04:09:41;101129.06;;;8.42;79.34
85499;BME280;75903;52.510;13.396;2024-02-04T04:12:06;101121.63;;;8.36;80.47
85499;BME280;75903;52.510;13.396;2024-02-04T04:14:32;101126.03;;;8.35;80.59
85499;BME280;75903;52.510;13.396;2024-02-04T04:16:57;101107.84;;;8.32;80.66
85499;BME280;75903;52.510;13.396;2024-02-04T04:19:22;101119.31;;;8.31;80.04
85499;BME280;75903;52.510;13.396;2024-02-04T04:21:48;101105.63;;;8.26;80.43
85499;BME280;75903;52.510;13.396;2024-02-04T04:24:13;101100.88;;;8.19;80.53
85499;BME280;75903;52.510;13.396;2024-02-04T04:26:41;101099.94;;;8.20;80.38
85499;BME280;75903;52.510;13.396;2024-02-04T04:29:06;101100.03;;;8.18;80.52
85499;BME280;75903;52.510;13.396;2024-02-04T04:31:31;101101.00;;;8.17;80.38
85499;BME280;75903;52.510;13.396;2024-02-04T04:33:57;101091.84;;;8.10;80.08
85499;BME280;75903;52.510;13.396;2024-02-04T04:36:22;101099.81;;;8.09;80.71
85499;BME280;75903;52.510;13.396;2024-02-04T04:38:47;101088.59;;;8.07;80.70
85499;BME280;75903;52.510;13.396;2024-02-04T04:41:15;101097.81;;;8.12;79.95
85499;BME280;75903;52.510;13.396;2024-02-04T04:43:41;101101.41;;;8.11;79.70
85499;BME280;75903;52.510;13.396;2024-02-04T04:46:06;101086.81;;;8.07;79.35
85499;BME280;75903;52.510;13.396;2024-02-04T04:48:31;101087.72;;;8.06;80.24
85499;BME280;75903;52.510;13.396;2024-02-04T04:50:57;101096.56;;;8.05;78.97
85499;BME280;75903;52.510;13.396;2024-02-04T04:53:22;101083.44;;;8.05;79.75
85499;BME280;75903;52.510;13.396;2024-02-04T04:55:47;101091.31;;;8.05;79.96
85499;BME280;75903;52.510;13.396;2024-02-04T04:58:13;101082.81;;;8.02;79.46
85499;BME280;75903;52.510;13.396;2024-02-04T05:00:38;101075.97;;;7.99;79.90
85499;BME280;75903;52.510;13.396;2024-02-04T05:03:04;101072.31;;;8.02;78.93
85499;BME280;75903;52.510;13.396;2024-02-04T05:05:29;101065.28;;;8.02;79.74
85499;BME280;75903;52.510;13.396;2024-02-04T05:07:55;101056.88;;;7.97;79.59
85499;BME280;75903;52.510;13.396;2024-02-04T05:10:20;101073.06;;;8.04;78.76
85499;BME280;75903;52.510;13.396;2024-02-04T05:12:45;101054.78;;;8.02;79.30
85499;BME280;75903;52.510;13.396;2024-02-04T05:15:11;101053.50;;;7.95;78.86
85499;BME280;75903;52.510;13.396;2024-02-04T05:17:36;101050.78;;;7.97;78.83
85499;BME280;75903;52.510;13.396;2024-02-04T05:20:02;101056.88;;;7.97;79.09
85499;BME280;75903;52.510;13.396;2024-02-04T05:22:29;101070.84;;;7.98;79.58
85499;BME280;75903;52.510;13.396;2024-02-04T05:24:54;101067.38;;;7.97;79.65
85499;BME280;75903;52.510;13.396;2024-02-04T05:27:20;101050.03;;;7.95;79.02
85499;BME280;75903;52.510;13.396;2024-02-04T05:29:45;101041.88;;;7.99;78.68
85499;BME280;75903;52.510;13.396;2024-02-04T05:32:10;101044.59;;;7.98;78.83
85499;BME280;75903;52.510;13.396;2024-02-04T05:34:37;101046.38;;;7.97;79.09
85499;BME280;75903;52.510;13.396;2024-02-04T05:37:02;101038.00;;;7.92;79.57
85499;BME280;75903;52.510;13.396;2024-02-04T05:39:28;101033.56;;;7.93;78.27
85499;BME280;75903;52.510;13.396;2024-02-04T05:41:53;101036.41;;;7.89;79.37
85499;BME280;75903;52.510;13.396;2024-02-04T05:44:19;101028.53;;;7.89;78.22
85499;BME280;75903;52.510;13.396;2024-02-04T05:46:44;101036.72;;;7.85;77.99
85499;BME280;75903;52.510;13.396;2024-02-04T05:49:09;101045.13;;;7.90;77.82
85499;BME280;75903;52.510;13.396;2024-02-04T05:51:39;101050.56;;;7.87;78.58
85499;BME280;75903;52.510;13.396;2024-02-04T05:54:05;101052.66;;;7.95;78.38
85499;BME280;75903;52.510;13.396;2024-02-04T05:56:31;101052.19;;;8.02;78.65
85499;BME280;75903;52.510;13.396;2024-02-04T05:58:56;101051.94;;;8.05;77.37
85499;BME280;75903;52.510;13.396;2024-02-04T06:01:22;101050.19;;;8.06;76.98
85499;BME280;75903;52.510;13.396;2024-02-04T06:03:47;101059.31;;;8.00;78.06
85499;BME280;75903;52.510;13.396;2024-02-04T06:06:16;101032.75;;;7.92;77.63
85499;BME280;75903;52.510;13.396;2024-02-04T06:08:44;101047.34;;;7.96;77.68
85499;BME280;75903;52.510;13.396;2024-02-04T06:11:11;101052.59;;;7.96;77.85
85499;BME280;75903;52.510;13.396;2024-02-04T06:13:38;101063.59;;;8.01;77.57
85499;BME280;75903;52.510;13.396;2024-02-04T06:16:03;101049.56;;;8.02;78.95
85499;BME280;75903;52.510;13.396;2024-02-04T06:18:29;101047.66;;;8.04;78.38
85499;BME280;75903;52.510;13.396;2024-02-04T06:20:54;101058.16;;;8.04;78.79
85499;BME280;75903;52.510;13.396;2024-02-04T06:23:20;101055.41;;;8.06;78.83
85499;BME280;75903;52.510;13.396;2024-02-04T06:25:45;101058.88;;;8.06;78.75
85499;BME280;75903;52.510;13.396;2024-02-04T06:28:10;101046.59;;;8.07;78.62
85499;BME280;75903;52.510;13.396;2024-02-04T06:30:36;101059.19;;;8.14;78.17
85499;BME280;75903;52.510;13.396;2024-02-04T06:33:01;101067.47;;;8.08;77.73
85499;BME280;75903;52.510;13.396;2024-02-04T06:35:28;101060.03;;;8.02;78.55
85499;BME280;75903;52.510;13.396;2024-02-04T06:37:53;101065.81;;;8.07;78.01
85499;BME280;75903;52.510;13.396;2024-02-04T06:40:18;101060.78;;;8.04;78.28
85499;BME280;75903;52.510;13.396;2024-02-04T06:42:44;101061.59;;;8.05;79.69
85499;BME280;75903;52.510;13.396;2024-02-04T06:45:09;101058.34;;;8.01;78.71
85499;BME280;75903;52.510;13.396;2024-02-04T06:47:35;101070.31;;;8.05;79.87
85499;BME280;75903;52.510;13.396;2024-02-04T06:50:00;101054.25;;;7.97;79.75
85499;BME280;75903;52.510;13.396;2024-02-04T06:52:28;101056.88;;;7.97;80.21
85499;BME280;75903;52.510;13.396;2024-02-04T06:54:53;101056.25;;;8.06;80.37
85499;BME280;75903;52.510;13.396;2024-02-04T06:57:21;101071.91;;;8.08;80.34
85499;BME280;75903;52.510;13.396;2024-02-04T06:59:47;101057.09;;;8.07;81.05
85499;BME280;75903;52.510;13.396;2024-02-04T07:02:12;101067.28;;;8.11;80.61
85499;BME280;75903;52.510;13.396;2024-02-04T07:04:37;101049.09;;;8.08;81.09
85499;BME280;75903;52.510;13.396;2024-02-04T07:07:03;101051.53;;;8.11;80.81
85499;BME280;75903;52.510;13.396;2024-02-04T07:09:28;101045.53;;;8.09;79.75
85499;BME280;75903;52.510;13.396;2024-02-04T07:11:53;101052.38;;;8.12;80.51
85499;BME280;75903;52.510;13.396;2024-02-04T07:14:19;101059.00;;;8.17;80.79
85499;BME280;75903;52.510;13.396;2024-02-04T07:16:44;101053.94;;;8.14;79.87
85499;BME280;75903;52.510;13.396;2024-02-04T07:19:10;101042.41;;;8.04;79.83
85499;BME280;75903;52.510;13.396;2024-02-04T07:21:35;101035.16;;;8.08;79.92
85499;BME280;75903;52.510;13.396;2024-02-04T07:24:04;101014.59;;;8.02;79.64
85499;BME280;75903;52.510;13.396;2024-02-04T07:26:29;101010.50;;;8.35;82.14
85499;BME280;75903;52.510;13.396;2024-02-04T07:28:54;101024.78;;;8.31;79.38
85499;BME280;75903;52.510;13.396;2024-02-04T07:31:20;101010.28;;;8.13;78.96
85499;BME280;75903;52.510;13.396;2024-02-04T07:33:47;101014.25;;;8.06;78.23
85499;BME280;75903;52.510;13.396;2024-02-04T07:36:12;101036.84;;;8.21;79.75
85499;BME280;75903;52.510;13.396;2024-02-04T07:38:38;101035.06;;;8.22;78.93
85499;BME280;75903;52.510;13.396;2024-02-04T07:41:03;101033.09;;;8.25;78.23
85499;BME280;75903;52.510;13.396;2024-02-04T07:43:29;101014.28;;;8.31;79.03
85499;BME280;75903;52.510;13.396;2024-02-04T07:45:54;101010.69;;;8.20;78.78
85499;BME280;75903;52.510;13.396;2024-02-04T07:48:19;100999.69;;;8.27;78.97
85499;BME280;75903;52.510;13.396;2024-02-04T07:50:46;101008.28;;;8.29;78.09
85499;BME280;75903;52.510;13.396;2024-02-04T07:53:11;100962.19;;;8.13;78.36
85499;BME280;75903;52.510;13.396;2024-02-04T07:55:37;100989.28;;;8.26;78.09
85499;BME280;75903;52.510;13.396;2024-02-04T07:58:02;100983.28;;;8.24;78.42
85499;BME280;75903;52.510;13.396;2024-02-04T08:00:27;100993.47;;;8.28;78.20
85499;BME280;75903;52.510;13.396;2024-02-04T08:02:54;100989.91;;;8.29;78.11
85499;BME280;75903;52.510;13.396;2024-02-04T08:05:20;100999.69;;;8.27;78.95
85499;BME280;75903;52.510;13.396;2024-02-04T08:07:45;101001.34;;;8.28;78.96
85499;BME280;75903;52.510;13.396;2024-02-04T08:10:11;100988.44;;;8.25;79.28
85499;BME280;75903;52.510;13.396;2024-02-04T08:12:36;100990.84;;;8.28;78.59
85499;BME280;75903;52.510;13.396;2024-02-04T08:15:01;100985.59;;;8.41;79.01
85499;BME280;75903;52.510;13.396;2024-02-04T08:17:27;100982.72;;;8.44;78.29
85499;BME280;75903;52.510;13.396;2024-02-04T08:19:56;100979.78;;;8.48;77.27
85499;BME280;75903;52.510;13.396;2024-02-04T08:22:21;100991.75;;;8.52;77.28
85499;BME280;75903;52.510;13.396;2024-02-04T08:24:46;100987.22;;;8.54;78.04
85499;BME280;75903;52.510;13.396;2024-02-04T08:27:12;100983.03;;;8.52;76.80
85499;BME280;75903;52.510;13.396;2024-02-04T08:29:40;100985.44;;;8.55;76.75
85499;BME280;75903;52.510;13.396;2024-02-04T08:32:06;100974.94;;;8.55;76.71
85499;BME280;75903;52.510;13.396;2024-02-04T08:34:31;100967.56;;;8.60;76.53
85499;BME280;75903;52.510;13.396;2024-02-04T08:36:56;100975.72;;;8.68;76.02
85499;BME280;75903;52.510;13.396;2024-02-04T08:39:22;100979.06;;;8.70;75.93
85499;BME280;75903;52.510;13.396;2024-02-04T08:41:47;100973.72;;;8.71;75.54
85499;BME280;75903;52.510;13.396;2024-02-04T08:44:13;100961.09;;;8.77;74.59
85499;BME280;75903;52.510;13.396;2024-02-04T08:46:38;100965.81;;;8.71;75.01
85499;BME280;75903;52.510;13.396;2024-02-04T08:49:03;100961.09;;;8.77;74.82
85499;BME280;75903;52.510;13.396;2024-02-04T08:51:29;100951.06;;;8.82;73.31
85499;BME280;75903;52.510;13.396;2024-02-04T08:53:54;100960.97;;;8.78;74.10
85499;BME280;75903;52.510;13.396;2024-02-04T08:56:20;100959.63;;;8.72;74.34
85499;BME280;75903;52.510;13.396;2024-02-04T08:58:45;100960.13;;;8.77;74.82
85499;BME280;75903;52.510;13.396;2024-02-04T09:01:12;100952.25;;;8.77;73.80
85499;BME280;75903;52.510;13.396;2024-02-04T09:03:37;100950.63;;;8.88;74.19
85499;BME280;75903;52.510;13.396;2024-02-04T09:06:02;100948.72;;;8.90;73.97
85499;BME280;75903;52.510;13.396;2024-02-04T09:08:28;100938.06;;;8.80;73.58
85499;BME280;75903;52.510;13.396;2024-02-04T09:10:53;100957.19;;;8.82;73.64
85499;BME280;75903;52.510;13.396;2024-02-04T09:13:19;100937.44;;;8.77;73.32
85499;BME280;75903;52.510;13.396;2024-02-04T09:15:44;100910.84;;;8.57;73.52
85499;BME280;75903;52.510;13.396;2024-02-04T09:18:09;100947.84;;;8.78;73.33
85499;BME280;75903;52.510;13.396;2024-02-04T09:20:35;100941.97;;;8.74;73.14
85499;BME280;75903;52.510;13.396;2024-02-04T09:23:00;100934.81;;;8.77;73.17
85499;BME280;75903;52.510;13.396;2024-02-04T09:25:25;100939.31;;;8.87;72.78
85499;BME280;75903;52.510;13.396;2024-02-04T09:27:51;100947.78;;;8.91;72.74
85499;BME280;75903;52.510;13.396;2024-02-04T09:30:16;100938.94;;;8.92;73.06
85499;BME280;75903;52.510;13.396;2024-02-04T09:32:42;100943.88;;;8.96;72.00
85499;BME280;75903;52.510;13.396;2024-02-04T09:35:07;100948.06;;;8.99;72.17
85499;BME280;75903;52.510;13.396;2024-02-04T09:37:34;100935.66;;;9.01;71.86
85499;BME280;75903;52.510;13.396;2024-02-04T09:40:00;100942.56;;;9.02;72.06
85499;BME280;75903;52.510;13.396;2024-02-04T09:42:25;100951.19;;;9.04;72.16
85499;BME280;75903;52.510;13.396;2024-02-04T09:44:53;100957.03;;;9.07;71.68
85499;BME280;75903;52.510;13.396;2024-02-04T09:47:20;100911.72;;;8.93;71.82
85499;BME280;75903;52.510;13.396;2024-02-04T09:49:45;100932.31;;;9.10;71.37
85499;BME280;75903;52.510;13.396;2024-02-04T09:52:12;100910.69;;;9.06;70.63
85499;BME280;75903;52.510;13.396;2024-02-04T09:54:44;100936.47;;;9.25;71.03
85499;BME280;75903;52.510;13.396;2024-02-04T09:57:10;100922.13;;;9.29;70.83
85499;BME280;75903;52.510;13.396;2024-02-04T09:59:36;100939.69;;;9.39;69.55
85499;BME280;75903;52.510;13.396;2024-02-04T10:02:03;100919.97;;;9.45;69.98
85499;BME280;75903;52.510;13.396;2024-02-04T10:04:28;100914.72;;;9.45;69.59
85499;BME280;75903;52.510;13.396;2024-02-04T10:06:54;100919.16;;;9.44;69.56
85499;BME280;75903;52.510;13.396;2024-02-04T10:09:19;100918.44;;;9.42;68.56
85499;BME280;75903;52.510;13.396;2024-02-04T10:11:45;100922.84;;;9.42;68.66
85499;BME280;75903;52.510;13.396;2024-02-04T10:14:11;100925.63;;;9.40;69.11
85499;BME280;75903;52.510;13.396;2024-02-04T10:16:37;100908.25;;;9.38;68.25
85499;BME280;75903;52.510;13.396;2024-02-04T10:19:02;100899.31;;;9.40;67.83
85499;BME280;75903;52.510;13.396;2024-02-04T10:21:28;100920.59;;;9.48;68.13
85499;BME280;75903;52.510;13.396;2024-02-04T10:23:53;100912.81;;;9.47;67.63
85499;BME280;75903;52.510;13.396;2024-02-04T10:26:20;100878.28;;;9.51;66.91
85499;BME280;75903;52.510;13.396;2024-02-04T10:28:47;100895.28;;;9.58;66.58
85499;BME280;75903;52.510;13.396;2024-02-04T10:31:12;100900.41;;;9.71;67.70
85499;BME280;75903;52.510;13.396;2024-02-04T10:33:38;100904.81;;;9.71;66.98
85499;BME280;75903;52.510;13.396;2024-02-04T10:36:04;100886.41;;;9.82;67.78
85499;BME280;75903;52.510;13.396;2024-02-04T10:38:31;100875.25;;;10.00;69.80
85499;BME280;75903;52.510;13.396;2024-02-04T10:40:59;100877.41;;;10.06;66.80
85499;BME280;75903;52.510;13.396;2024-02-04T10:43:32;100880.53;;;10.00;65.73
85499;BME280;75903;52.510;13.396;2024-02-04T10:48:34;100892.03;;;9.99;69.27
85499;BME280;75903;52.510;13.396;2024-02-04T10:53:34;100878.88;;;9.99;68.98
85499;BME280;75903;52.510;13.396;2024-02-04T10:56:01;100881.75;;;9.96;65.48
85499;BME280;75903;52.510;13.396;2024-02-04T10:58:28;100875.78;;;9.94;65.51
85499;BME280;75903;52.510;13.396;2024-02-04T11:00:55;100879.59;;;9.90;66.22
85499;BME280;75903;52.510;13.396;2024-02-04T11:03:21;100861.78;;;9.94;66.28
85499;BME280;75903;52.510;13.396;2024-02-04T11:05:47;100875.25;;;10.00;66.02
85499;BME280;75903;52.510;13.396;2024-02-04T11:08:14;100873.34;;;10.02;65.05
85499;BME280;75903;52.510;13.396;2024-02-04T11:10:40;100864.28;;;9.95;66.29
85499;BME280;75903;52.510;13.396;2024-02-04T11:13:06;100866.19;;;9.93;65.60
85499;BME280;75903;52.510;13.396;2024-02-04T11:15:36;100863.09;;;9.88;66.07
85499;BME280;75903;52.510;13.396;2024-02-04T11:26:05;100855.06;;;9.79;65.30
85499;BME280;75903;52.510;13.396;2024-02-04T11:28:31;100855.69;;;9.82;65.08
85499;BME280;75903;52.510;13.396;2024-02-04T11:30:57;100856.28;;;9.86;65.17
85499;BME280;75903;52.510;13.396;2024-02-04T11:33:22;100842.94;;;10.09;70.99
85499;BME280;75903;52.510;13.396;2024-02-04T11:36:03;100840.44;;;10.08;64.57
85499;BME280;75903;52.510;13.396;2024-02-04T11:38:35;100843.38;;;10.36;66.62
85499;BME280;75903;52.510;13.396;2024-02-04T11:41:02;100838.38;;;10.65;65.55
85499;BME280;75903;52.510;13.396;2024-02-04T11:43:28;100827.53;;;10.79;62.87
85499;BME280;75903;52.510;13.396;2024-02-04T11:45:54;100812.63;;;10.37;62.97
85499;BME280;75903;52.510;13.396;2024-02-04T11:48:19;100800.25;;;10.06;63.60
85499;BME280;75903;52.510;13.396;2024-02-04T11:50:52;100785.28;;;9.95;64.61
85499;BME280;75903;52.510;13.396;2024-02-04T11:53:18;100788.91;;;9.83;64.43
85499;BME280;75903;52.510;13.396;2024-02-04T11:55:44;100777.56;;;9.72;64.47
85499;BME280;75903;52.510;13.396;2024-02-04T11:58:11;100798.38;;;9.86;64.21
85499;BME280;75903;52.510;13.396;2024-02-04T12:00:36;100801.13;;;9.84;63.24
85499;BME280;75903;52.510;13.396;2024-02-04T12:03:06;100796.09;;;9.81;64.44
85499;BME280;75903;52.510;13.396;2024-02-04T12:05:33;100783.66;;;9.83;63.44
85499;BME280;75903;52.510;13.396;2024-02-04T12:08:01;100804.56;;;9.85;63.34
85499;BME280;75903;52.510;13.396;2024-02-04T12:10:27;100788.41;;;9.89;64.22
85499;BME280;75903;52.510;13.396;2024-02-04T12:12:55;100802.06;;;9.94;63.54
85499;BME280;75903;52.510;13.396;2024-02-04T12:15:21;100797.25;;;9.99;63.53
85499;BME280;75903;52.510;13.396;2024-02-04T12:17:46;100810.91;;;9.93;63.72
85499;BME280;75903;52.510;13.396;2024-02-04T12:20:12;100814.16;;;9.86;63.36
85499;BME280;75903;52.510;13.396;2024-02-04T12:22:37;100796.09;;;9.81;64.16
85499;BME280;75903;52.510;13.396;2024-02-04T12:25:03;100805.78;;;9.81;64.00
85499;BME280;75903;52.510;13.396;2024-02-04T12:27:29;100794.66;;;9.77;63.94
85499;BME280;75903;52.510;13.396;2024-02-04T12:29:54;100809.16;;;9.72;64.70
85499;BME280;75903;52.510;13.396;2024-02-04T12:32:20;100803.16;;;9.70;63.59
85499;BME280;75903;52.510;13.396;2024-02-04T12:34:48;100806.75;;;9.69;64.22
85499;BME280;75903;52.510;13.396;2024-02-04T12:37:17;100799.94;;;9.66;64.01
85499;BME280;75903;52.510;13.396;2024-02-04T12:39:42;100803.41;;;9.67;64.03
85499;BME280;75903;52.510;13.396;2024-02-04T12:42:07;100791.47;;;9.63;63.78
85499;BME280;75903;52.510;13.396;2024-02-04T12:44:33;100788.72;;;9.64;63.73
85499;BME280;75903;52.510;13.396;2024-02-04T12:46:58;100786.78;;;9.66;63.30
85499;BME280;75903;52.510;13.396;2024-02-04T12:49:23;100775.53;;;9.53;63.55
85499;BME280;75903;52.510;13.396;2024-02-04T12:51:50;100773.16;;;9.61;63.11
85499;BME280;75903;52.510;13.396;2024-02-04T12:54:17;100778.41;;;9.61;63.65
85499;BME280;75903;52.510;13.396;2024-02-04T12:56:48;100781.75;;;9.63;63.21
85499;BME280;75903;52.510;13.396;2024-02-04T12:59:31;100803.78;;;9.62;62.57
85499;BME280;75903;52.510;13.396;2024-02-04T13:02:01;100787.28;;;9.60;62.98